createdAt,value
2023-03-17T00:01:41.893Z,4.60
2023-03-17T00:06:44.294Z,5.17
2023-03-17T00:11:47.413Z,4.43
2023-03-17T00:16:52.041Z,5.47
2023-03-17T00:21:55.111Z,4.40
2023-03-17T00:26:57.312Z,3.67
2023-03-17T00:31:59.961Z,3.80
2023-03-17T00:37:02.103Z,5.53
2023-03-17T00:42:04.529Z,3.73
2023-03-17T00:47:08.697Z,3.93
2023-03-17T00:52:10.967Z,6.00
2023-03-17T00:57:13.245Z,3.63
2023-03-17T01:02:15.761Z,4.50
2023-03-17T01:07:18.274Z,3.70
2023-03-17T01:12:22.470Z,6.30
2023-03-17T01:17:24.708Z,3.50
2023-03-17T01:22:27.123Z,4.57
2023-03-17T01:27:33.729Z,3.63
2023-03-17T01:32:36.034Z,3.47
2023-03-17T01:37:38.750Z,6.57
2023-03-17T01:42:44.829Z,3.60
2023-03-17T01:47:47.576Z,3.27
2023-03-17T01:52:49.714Z,4.50
2023-03-17T01:57:56.467Z,4.73
2023-03-17T02:02:59.191Z,3.50
2023-03-17T02:08:01.679Z,7.43
2023-03-17T02:13:05.908Z,4.13
2023-03-17T02:18:11.716Z,4.50
2023-03-17T02:23:22.549Z,4.90
2023-03-17T02:28:30.982Z,5.10
2023-03-17T02:33:33.462Z,3.00
2023-03-17T02:38:36.313Z,3.83
2023-03-17T02:43:38.607Z,3.03
2023-03-17T02:48:41.387Z,6.40
2023-03-17T02:53:43.731Z,3.70
2023-03-17T02:58:46.527Z,4.80
2023-03-17T03:03:48.908Z,4.30
2023-03-17T03:08:52.081Z,3.63
2023-03-17T03:13:54.386Z,4.80
2023-03-17T03:18:56.830Z,4.00
2023-03-17T03:23:59.087Z,4.97
2023-03-17T03:29:01.393Z,4.37
2023-03-17T03:34:04.225Z,4.37
2023-03-17T03:39:06.576Z,4.33
2023-03-17T03:44:08.995Z,3.70
2023-03-17T03:49:11.402Z,4.70
2023-03-17T03:54:13.630Z,5.00
2023-03-17T03:59:16.283Z,4.20
2023-03-17T04:04:18.618Z,4.87
2023-03-17T04:14:44.732Z,4.10
2023-03-17T04:19:47.174Z,3.93
2023-03-17T04:24:49.458Z,4.70
2023-03-17T04:29:51.683Z,6.40
2023-03-17T04:34:54.114Z,6.63
2023-03-17T04:39:56.424Z,5.40
2023-03-17T04:44:58.646Z,8.00
2023-03-17T04:50:01.362Z,7.10
2023-03-17T04:55:10.400Z,6.70
2023-03-17T05:00:13.324Z,7.00
2023-03-17T05:05:15.686Z,6.13
2023-03-17T05:10:18.049Z,7.03
2023-03-17T05:15:20.337Z,7.03
2023-03-17T05:20:22.547Z,5.40
2023-03-17T05:25:24.777Z,6.60
2023-03-17T05:30:27.216Z,7.37
2023-03-17T05:35:29.662Z,6.17
2023-03-17T05:40:32.708Z,5.10
2023-03-17T05:45:35.037Z,6.07
2023-03-17T05:50:37.344Z,5.33
2023-03-17T05:55:39.730Z,4.70
2023-03-17T06:00:42.711Z,4.93
2023-03-17T06:05:44.994Z,5.13
2023-03-17T06:10:48.187Z,6.30
2023-03-17T06:15:54.221Z,5.37
2023-03-17T06:20:56.712Z,6.23
2023-03-17T06:25:58.850Z,6.13
2023-03-17T06:31:01.395Z,5.00
2023-03-17T06:36:03.858Z,7.83
2023-03-17T06:41:06.299Z,18.37
2023-03-17T06:46:09.089Z,26.60
2023-03-17T06:51:11.633Z,18.33
2023-03-17T06:56:28.899Z,12.67
2023-03-17T07:01:32.301Z,8.33
2023-03-17T07:06:35.807Z,5.57
2023-03-17T07:11:38.225Z,4.90
2023-03-17T07:16:40.567Z,8.60
2023-03-17T07:21:42.864Z,6.23
2023-03-17T07:26:44.988Z,10.10
2023-03-17T07:31:47.407Z,6.67
2023-03-17T07:36:49.777Z,5.93
2023-03-17T07:41:55.147Z,5.63
2023-03-17T07:46:57.523Z,6.50
2023-03-17T07:51:59.903Z,5.70
2023-03-17T07:57:02.108Z,8.73
2023-03-17T08:02:04.740Z,6.27
2023-03-17T08:07:06.976Z,7.00
2023-03-17T08:12:10.059Z,6.50
2023-03-17T08:17:12.342Z,7.30
2023-03-17T08:22:14.583Z,6.57
2023-03-17T08:27:18.843Z,6.50
2023-03-17T08:32:20.945Z,6.03
2023-03-17T08:37:24.658Z,6.43
2023-03-17T08:42:26.935Z,6.50
2023-03-17T08:47:29.765Z,6.97
2023-03-17T08:52:32.650Z,10.53
2023-03-17T08:57:35.895Z,7.90
2023-03-17T09:02:39.202Z,5.30
2023-03-17T09:07:42.641Z,6.80
2023-03-17T09:12:44.910Z,5.43
2023-03-17T09:17:47.171Z,5.47
2023-03-17T09:22:49.580Z,10.97
2023-03-17T09:27:52.044Z,11.43
2023-03-17T09:32:54.914Z,7.10
2023-03-17T09:37:57.599Z,5.73
2023-03-17T09:43:38.715Z,6.73
2023-03-17T09:49:07.622Z,4.80
2023-03-17T09:54:33.717Z,5.70
2023-03-17T09:59:44.789Z,5.70
2023-03-17T10:04:48.832Z,5.90
2023-03-17T10:10:03.491Z,6.20
2023-03-17T10:15:30.560Z,3.70
2023-03-17T10:20:36.487Z,3.90
2023-03-17T10:25:39.589Z,6.13
2023-03-17T10:30:41.742Z,3.90
2023-03-17T10:35:45.102Z,5.43
2023-03-17T10:40:58.074Z,4.70
2023-03-17T10:46:04.092Z,5.07
2023-03-17T10:51:09.949Z,6.00
2023-03-17T10:56:26.816Z,5.93
2023-03-17T11:01:35.855Z,8.17
2023-03-17T11:06:43.904Z,5.60
2023-03-17T11:12:06.494Z,5.83
2023-03-17T11:17:21.398Z,3.90
2023-03-17T11:22:38.254Z,4.70
2023-03-17T11:28:19.214Z,4.33
2023-03-17T11:33:36.531Z,3.90
2023-03-17T11:39:23.243Z,4.33
2023-03-17T11:44:59.843Z,4.90
2023-03-17T11:50:49.556Z,4.60
2023-03-17T11:56:05.430Z,6.20
2023-03-17T12:01:12.990Z,5.90
2023-03-17T12:06:36.745Z,6.13
2023-03-17T12:11:44.567Z,5.17
2023-03-17T12:17:02.520Z,4.80
2023-03-17T12:22:13.606Z,5.73
2023-03-17T12:27:30.248Z,4.73
2023-03-17T12:32:45.862Z,5.30
2023-03-17T12:37:49.720Z,4.17
2023-03-17T12:43:39.057Z,3.63
2023-03-17T12:49:11.013Z,3.30
2023-03-17T12:54:21.496Z,4.90
2023-03-17T12:59:26.348Z,3.40
2023-03-17T13:04:36.202Z,4.13
2023-03-17T13:09:49.711Z,2.80
2023-03-17T13:14:52.334Z,3.00
2023-03-17T13:20:10.472Z,4.00
2023-03-17T13:25:34.929Z,1.70
2023-03-17T13:30:37.098Z,11.80
2023-03-17T13:36:05.939Z,2.30
2023-03-17T13:41:50.310Z,2.53
2023-03-17T13:46:52.887Z,1.87
2023-03-17T13:52:17.688Z,2.37
2023-03-17T13:57:39.962Z,2.10
2023-03-17T14:02:44.659Z,2.67
2023-03-17T14:08:01.126Z,4.37
2023-03-17T14:13:24.783Z,6.20
2023-03-17T14:18:37.780Z,3.03
2023-03-17T14:23:39.975Z,2.23
2023-03-17T14:28:42.120Z,3.40
2023-03-17T14:33:44.418Z,3.20
2023-03-17T14:38:53.421Z,2.60
2023-03-17T14:44:01.000Z,1.80
2023-03-17T14:49:13.395Z,3.13
2023-03-17T14:54:31.420Z,2.10
2023-03-17T14:59:36.197Z,2.77
2023-03-17T15:04:53.547Z,2.10
2023-03-17T15:10:02.169Z,2.50
2023-03-17T15:15:16.961Z,2.80
2023-03-17T15:20:20.230Z,3.97
2023-03-17T15:25:39.740Z,2.83
2023-03-17T15:30:48.224Z,2.20
2023-03-17T15:35:51.591Z,2.87
2023-03-17T15:40:54.717Z,1.80
2023-03-17T15:46:07.669Z,2.30
2023-03-17T15:51:11.715Z,2.10
2023-03-17T15:56:20.318Z,2.80
2023-03-17T16:01:22.708Z,2.97
2023-03-17T16:06:25.044Z,4.77
2023-03-17T16:11:31.444Z,5.40
2023-03-17T16:16:42.369Z,4.43
2023-03-17T16:21:44.532Z,5.03
2023-03-17T16:26:46.659Z,3.50
2023-03-17T16:31:56.891Z,3.53
2023-03-17T16:36:59.107Z,2.37
2023-03-17T16:42:01.822Z,9.03
2023-03-17T16:47:04.223Z,5.00
2023-03-17T16:52:06.505Z,4.07
2023-03-17T16:57:12.982Z,4.70
2023-03-17T17:02:16.877Z,1.90
2023-03-17T17:07:18.975Z,3.20
2023-03-17T17:12:21.169Z,3.90
2023-03-17T17:17:23.357Z,10.07
2023-03-17T17:22:25.526Z,29.90
2023-03-17T17:27:27.646Z,19.60
2023-03-17T17:32:29.995Z,7.63
2023-03-17T17:37:32.449Z,3.40
2023-03-17T17:42:35.866Z,2.97
2023-03-17T17:47:38.179Z,4.73
2023-03-17T17:52:40.387Z,3.40
2023-03-17T17:57:42.552Z,6.57
2023-03-17T18:02:45.500Z,6.40
2023-03-17T18:07:47.632Z,6.40
2023-03-17T18:12:49.774Z,7.90
2023-03-17T18:17:52.241Z,6.90
2023-03-17T18:22:54.561Z,6.47
2023-03-17T18:27:57.416Z,8.03
2023-03-17T18:33:09.675Z,6.17
2023-03-17T18:38:11.992Z,6.10
2023-03-17T18:43:14.186Z,4.57
2023-03-17T18:48:16.562Z,5.47
2023-03-17T18:53:18.789Z,4.17
2023-03-17T18:58:20.925Z,5.07
2023-03-17T19:03:23.452Z,7.30
2023-03-17T19:08:25.810Z,4.77
2023-03-17T19:13:27.896Z,7.93
2023-03-17T19:18:30.250Z,5.73
2023-03-17T19:23:33.541Z,3.20
2023-03-17T19:28:35.742Z,2.40
2023-03-17T19:33:38.048Z,3.13
2023-03-17T19:38:41.230Z,2.47
2023-03-17T19:43:43.533Z,3.43
2023-03-17T19:48:45.615Z,2.93
2023-03-17T19:53:47.729Z,2.43
2023-03-17T19:58:51.152Z,2.67
2023-03-17T20:03:53.277Z,2.10
2023-03-17T20:08:55.449Z,3.93
2023-03-17T20:13:57.573Z,2.00
2023-03-17T20:19:01.319Z,1.47
2023-03-17T20:24:03.936Z,1.93
2023-03-17T20:29:06.570Z,2.53
2023-03-17T20:34:10.128Z,5.13
2023-03-17T20:39:14.929Z,4.43
2023-03-17T20:44:18.117Z,3.30
2023-03-17T20:49:21.006Z,3.00
2023-03-17T20:54:25.802Z,5.90
2023-03-17T20:59:28.203Z,5.60
2023-03-17T21:04:30.596Z,4.80
2023-03-17T21:09:32.885Z,3.30
2023-03-17T21:14:35.115Z,4.37
2023-03-17T21:19:38.213Z,2.90
2023-03-17T21:24:40.602Z,2.17
2023-03-17T21:29:42.844Z,2.60
2023-03-17T21:34:45.487Z,3.47
2023-03-17T21:39:47.778Z,5.13
2023-03-17T21:44:52.007Z,2.80
2023-03-17T21:49:54.430Z,3.20
2023-03-17T21:54:57.332Z,3.53
2023-03-17T21:59:59.576Z,3.00
2023-03-17T22:05:02.731Z,2.97
2023-03-17T22:10:07.388Z,2.60
2023-03-17T22:15:10.436Z,4.27
2023-03-17T22:20:12.628Z,4.13
2023-03-17T22:25:14.819Z,2.77
2023-03-17T22:30:17.340Z,2.80
2023-03-17T22:35:21.017Z,2.10
2023-03-17T22:40:23.390Z,2.70
2023-03-17T22:45:26.542Z,5.80
2023-03-17T22:50:28.965Z,6.40
2023-03-17T22:55:31.416Z,5.43
2023-03-17T23:00:33.808Z,2.53
2023-03-17T23:05:36.036Z,3.03
2023-03-17T23:10:40.081Z,2.50
2023-03-17T23:15:42.522Z,2.27
2023-03-17T23:20:45.907Z,2.70
2023-03-17T23:25:48.214Z,3.33
2023-03-17T23:30:51.227Z,3.33
2023-03-17T23:35:53.784Z,3.00
2023-03-17T23:40:57.860Z,2.97
2023-03-17T23:46:01.057Z,3.07
2023-03-17T23:51:03.484Z,4.90
2023-03-17T23:56:07.830Z,3.60
